sensor_id;sensor_type;location;lat;lon;timestamp;P1;durP1;ratioP1;P2;durP2;ratioP2
32445;SDS011;18899;50.748;7.102;2023-05-07T00:00:23;6.07;;;3.60;;
32445;SDS011;18899;50.748;7.102;2023-05-07T00:02:49;4.70;;;3.30;;
32445;SDS011;18899;50.748;7.102;2023-05-07T00:05:14;10.13;;;3.65;;
32445;SDS011;18899;50.748;7.102;2023-05-07T00:07:40;7.47;;;3.80;;
32445;SDS011;18899;50.748;7.102;2023-05-07T00:10:06;7.25;;;3.75;;
32445;SDS011;18899;50.748;7.102;2023-05-07T00:12:32;6.53;;;3.80;;
32445;SDS011;18899;50.748;7.102;2023-05-07T00:15:01;6.63;;;3.80;;
32445;SDS011;18899;50.748;7.102;2023-05-07T00:17:29;6.78;;;4.18;;
32445;SDS011;18899;50.748;7.102;2023-05-07T00:19:55;10.30;;;4.45;;
32445;SDS011;18899;50.748;7.102;2023-05-07T00:22:20;6.43;;;3.95;;
32445;SDS011;18899;50.748;7.102;2023-05-07T00:24:46;5.35;;;3.55;;
32445;SDS011;18899;50.748;7.102;2023-05-07T00:27:11;11.05;;;4.13;;
32445;SDS011;18899;50.748;7.102;2023-05-07T00:29:37;4.25;;;2.95;;
32445;SDS011;18899;50.748;7.102;2023-05-07T00:32:03;4.90;;;3.20;;
32445;SDS011;18899;50.748;7.102;2023-05-07T00:34:28;8.82;;;3.53;;
32445;SDS011;18899;50.748;7.102;2023-05-07T00:36:54;8.48;;;3.90;;
32445;SDS011;18899;50.748;7.102;2023-05-07T00:39:19;6.20;;;4.07;;
32445;SDS011;18899;50.748;7.102;2023-05-07T00:41:45;6.47;;;3.53;;
32445;SDS011;18899;50.748;7.102;2023-05-07T00:44:11;5.72;;;3.67;;
32445;SDS011;18899;50.748;7.102;2023-05-07T00:46:36;5.68;;;3.65;;
32445;SDS011;18899;50.748;7.102;2023-05-07T00:49:02;8.45;;;3.35;;
32445;SDS011;18899;50.748;7.102;2023-05-07T00:51:30;9.20;;;3.83;;
32445;SDS011;18899;50.748;7.102;2023-05-07T00:53:55;11.10;;;3.42;;
32445;SDS011;18899;50.748;7.102;2023-05-07T00:56:21;7.03;;;3.38;;
32445;SDS011;18899;50.748;7.102;2023-05-07T00:58:47;10.43;;;3.53;;
32445;SDS011;18899;50.748;7.102;2023-05-07T01:01:13;7.97;;;3.60;;
32445;SDS011;18899;50.748;7.102;2023-05-07T01:03:40;6.95;;;4.18;;
32445;SDS011;18899;50.748;7.102;2023-05-07T01:06:06;7.07;;;4.18;;
32445;SDS011;18899;50.748;7.102;2023-05-07T01:08:33;7.63;;;4.00;;
32445;SDS011;18899;50.748;7.102;2023-05-07T01:11:00;6.22;;;3.92;;
32445;SDS011;18899;50.748;7.102;2023-05-07T01:13:26;7.00;;;4.10;;
32445;SDS011;18899;50.748;7.102;2023-05-07T01:15:52;6.47;;;3.83;;
32445;SDS011;18899;50.748;7.102;2023-05-07T01:18:18;9.88;;;4.00;;
32445;SDS011;18899;50.748;7.102;2023-05-07T01:20:44;5.55;;;3.55;;
32445;SDS011;18899;50.748;7.102;2023-05-07T01:23:11;6.00;;;4.25;;
32445;SDS011;18899;50.748;7.102;2023-05-07T01:25:37;7.53;;;4.50;;
32445;SDS011;18899;50.748;7.102;2023-05-07T01:28:02;7.20;;;4.28;;
32445;SDS011;18899;50.748;7.102;2023-05-07T01:30:28;6.40;;;4.15;;
32445;SDS011;18899;50.748;7.102;2023-05-07T01:32:59;8.68;;;4.95;;
32445;SDS011;18899;50.748;7.102;2023-05-07T01:35:27;6.75;;;4.22;;
32445;SDS011;18899;50.748;7.102;2023-05-07T01:37:57;8.18;;;4.65;;
32445;SDS011;18899;50.748;7.102;2023-05-07T01:40:23;8.30;;;4.47;;
32445;SDS011;18899;50.748;7.102;2023-05-07T01:42:50;7.47;;;4.50;;
32445;SDS011;18899;50.748;7.102;2023-05-07T01:45:16;7.47;;;4.40;;
32445;SDS011;18899;50.748;7.102;2023-05-07T01:47:42;7.43;;;4.15;;
32445;SDS011;18899;50.748;7.102;2023-05-07T01:50:08;6.38;;;4.05;;
32445;SDS011;18899;50.748;7.102;2023-05-07T01:52:35;7.07;;;4.10;;
32445;SDS011;18899;50.748;7.102;2023-05-07T01:55:02;6.72;;;4.00;;
32445;SDS011;18899;50.748;7.102;2023-05-07T01:57:28;8.65;;;4.03;;
32445;SDS011;18899;50.748;7.102;2023-05-07T01:59:54;8.88;;;4.70;;
32445;SDS011;18899;50.748;7.102;2023-05-07T02:02:19;7.78;;;3.75;;
32445;SDS011;18899;50.748;7.102;2023-05-07T02:04:45;11.43;;;3.50;;
32445;SDS011;18899;50.748;7.102;2023-05-07T02:07:10;7.25;;;3.92;;
32445;SDS011;18899;50.748;7.102;2023-05-07T02:09:36;7.80;;;3.65;;
32445;SDS011;18899;50.748;7.102;2023-05-07T02:12:02;6.68;;;3.80;;
32445;SDS011;18899;50.748;7.102;2023-05-07T02:14:27;6.03;;;3.40;;
32445;SDS011;18899;50.748;7.102;2023-05-07T02:16:53;6.38;;;3.97;;
32445;SDS011;18899;50.748;7.102;2023-05-07T02:19:18;6.20;;;3.83;;
32445;SDS011;18899;50.748;7.102;2023-05-07T02:21:46;6.57;;;3.80;;
32445;SDS011;18899;50.748;7.102;2023-05-07T02:24:11;8.27;;;3.80;;
32445;SDS011;18899;50.748;7.102;2023-05-07T02:26:37;5.20;;;3.83;;
32445;SDS011;18899;50.748;7.102;2023-05-07T02:29:03;8.00;;;4.05;;
32445;SDS011;18899;50.748;7.102;2023-05-07T02:31:28;6.82;;;3.90;;
32445;SDS011;18899;50.748;7.102;2023-05-07T02:33:54;9.52;;;4.22;;
32445;SDS011;18899;50.748;7.102;2023-05-07T02:36:19;5.97;;;3.60;;
32445;SDS011;18899;50.748;7.102;2023-05-07T02:38:45;6.07;;;3.42;;
32445;SDS011;18899;50.748;7.102;2023-05-07T02:41:10;8.75;;;4.10;;
32445;SDS011;18899;50.748;7.102;2023-05-07T02:43:36;7.53;;;3.95;;
32445;SDS011;18899;50.748;7.102;2023-05-07T02:46:04;5.45;;;4.05;;
32445;SDS011;18899;50.748;7.102;2023-05-07T02:48:34;9.05;;;4.25;;
32445;SDS011;18899;50.748;7.102;2023-05-07T02:51:00;7.53;;;4.00;;
32445;SDS011;18899;50.748;7.102;2023-05-07T02:53:26;6.07;;;4.15;;
32445;SDS011;18899;50.748;7.102;2023-05-07T02:55:52;7.45;;;4.10;;
32445;SDS011;18899;50.748;7.102;2023-05-07T02:58:18;6.22;;;4.13;;
32445;SDS011;18899;50.748;7.102;2023-05-07T03:00:44;8.10;;;4.22;;
32445;SDS011;18899;50.748;7.102;2023-05-07T03:03:10;6.90;;;4.38;;
32445;SDS011;18899;50.748;7.102;2023-05-07T03:05:35;5.85;;;3.97;;
32445;SDS011;18899;50.748;7.102;2023-05-07T03:08:01;10.80;;;5.50;;
32445;SDS011;18899;50.748;7.102;2023-05-07T03:10:27;7.43;;;4.88;;
32445;SDS011;18899;50.748;7.102;2023-05-07T03:12:53;8.73;;;4.88;;
32445;SDS011;18899;50.748;7.102;2023-05-07T03:15:18;8.38;;;4.50;;
32445;SDS011;18899;50.748;7.102;2023-05-07T03:17:44;9.57;;;4.97;;
32445;SDS011;18899;50.748;7.102;2023-05-07T03:20:09;6.53;;;4.60;;
32445;SDS011;18899;50.748;7.102;2023-05-07T03:22:35;7.18;;;4.68;;
32445;SDS011;18899;50.748;7.102;2023-05-07T03:25:01;10.30;;;4.60;;
32445;SDS011;18899;50.748;7.102;2023-05-07T03:27:27;12.32;;;4.93;;
32445;SDS011;18899;50.748;7.102;2023-05-07T03:29:52;7.50;;;4.43;;
32445;SDS011;18899;50.748;7.102;2023-05-07T03:32:18;10.57;;;4.78;;
32445;SDS011;18899;50.748;7.102;2023-05-07T03:34:43;5.63;;;4.20;;
32445;SDS011;18899;50.748;7.102;2023-05-07T03:37:09;7.05;;;3.50;;
32445;SDS011;18899;50.748;7.102;2023-05-07T03:39:34;9.93;;;4.13;;
32445;SDS011;18899;50.748;7.102;2023-05-07T03:42:00;5.43;;;3.83;;
32445;SDS011;18899;50.748;7.102;2023-05-07T03:44:26;6.93;;;3.70;;
32445;SDS011;18899;50.748;7.102;2023-05-07T03:46:51;7.45;;;3.78;;
32445;SDS011;18899;50.748;7.102;2023-05-07T03:49:17;6.72;;;3.53;;
32445;SDS011;18899;50.748;7.102;2023-05-07T03:51:42;5.93;;;3.80;;
32445;SDS011;18899;50.748;7.102;2023-05-07T03:54:08;6.53;;;4.22;;
32445;SDS011;18899;50.748;7.102;2023-05-07T03:56:33;7.47;;;4.00;;
32445;SDS011;18899;50.748;7.102;2023-05-07T03:59:00;5.90;;;3.80;;
32445;SDS011;18899;50.748;7.102;2023-05-07T04:01:26;10.05;;;4.18;;
32445;SDS011;18899;50.748;7.102;2023-05-07T04:03:51;6.90;;;4.57;;
32445;SDS011;18899;50.748;7.102;2023-05-07T04:06:17;8.93;;;4.20;;
32445;SDS011;18899;50.748;7.102;2023-05-07T04:08:43;8.68;;;4.47;;
32445;SDS011;18899;50.748;7.102;2023-05-07T04:11:08;6.32;;;4.60;;
32445;SDS011;18899;50.748;7.102;2023-05-07T04:13:34;10.73;;;5.47;;
32445;SDS011;18899;50.748;7.102;2023-05-07T04:16:01;7.53;;;4.22;;
32445;SDS011;18899;50.748;7.102;2023-05-07T04:18:27;11.40;;;6.03;;
32445;SDS011;18899;50.748;7.102;2023-05-07T04:20:53;13.70;;;5.45;;
32445;SDS011;18899;50.748;7.102;2023-05-07T04:23:19;15.45;;;6.20;;
32445;SDS011;18899;50.748;7.102;2023-05-07T04:25:44;11.32;;;5.32;;
32445;SDS011;18899;50.748;7.102;2023-05-07T04:28:10;8.48;;;4.63;;
32445;SDS011;18899;50.748;7.102;2023-05-07T04:30:36;7.75;;;5.15;;
32445;SDS011;18899;50.748;7.102;2023-05-07T04:33:02;8.88;;;5.45;;
32445;SDS011;18899;50.748;7.102;2023-05-07T04:35:27;9.50;;;4.60;;
32445;SDS011;18899;50.748;7.102;2023-05-07T04:37:53;6.18;;;3.90;;
32445;SDS011;18899;50.748;7.102;2023-05-07T04:40:18;8.82;;;4.15;;
32445;SDS011;18899;50.748;7.102;2023-05-07T04:42:44;8.63;;;4.38;;
32445;SDS011;18899;50.748;7.102;2023-05-07T04:45:10;5.60;;;4.13;;
32445;SDS011;18899;50.748;7.102;2023-05-07T04:47:37;6.82;;;4.03;;
32445;SDS011;18899;50.748;7.102;2023-05-07T04:50:03;6.15;;;4.00;;
32445;SDS011;18899;50.748;7.102;2023-05-07T04:52:29;7.65;;;4.10;;
32445;SDS011;18899;50.748;7.102;2023-05-07T04:54:54;9.13;;;4.10;;
32445;SDS011;18899;50.748;7.102;2023-05-07T04:57:20;6.25;;;4.15;;
32445;SDS011;18899;50.748;7.102;2023-05-07T04:59:46;8.40;;;4.00;;
32445;SDS011;18899;50.748;7.102;2023-05-07T05:02:11;5.10;;;3.65;;
32445;SDS011;18899;50.748;7.102;2023-05-07T05:04:37;9.95;;;4.35;;
32445;SDS011;18899;50.748;7.102;2023-05-07T05:07:02;7.13;;;4.22;;
32445;SDS011;18899;50.748;7.102;2023-05-07T05:09:29;8.23;;;4.05;;
32445;SDS011;18899;50.748;7.102;2023-05-07T05:11:55;6.82;;;3.95;;
32445;SDS011;18899;50.748;7.102;2023-05-07T05:14:20;8.23;;;4.10;;
32445;SDS011;18899;50.748;7.102;2023-05-07T05:16:46;9.70;;;4.70;;
32445;SDS011;18899;50.748;7.102;2023-05-07T05:19:11;7.35;;;3.63;;
32445;SDS011;18899;50.748;7.102;2023-05-07T05:21:37;6.35;;;3.80;;
32445;SDS011;18899;50.748;7.102;2023-05-07T05:24:02;5.70;;;3.35;;
32445;SDS011;18899;50.748;7.102;2023-05-07T05:26:28;6.78;;;3.40;;
32445;SDS011;18899;50.748;7.102;2023-05-07T05:28:54;7.05;;;3.30;;
32445;SDS011;18899;50.748;7.102;2023-05-07T05:31:19;6.03;;;3.33;;
32445;SDS011;18899;50.748;7.102;2023-05-07T05:33:45;4.82;;;3.22;;
32445;SDS011;18899;50.748;7.102;2023-05-07T05:36:10;9.35;;;3.40;;
32445;SDS011;18899;50.748;7.102;2023-05-07T05:38:38;5.90;;;3.00;;
32445;SDS011;18899;50.748;7.102;2023-05-07T05:41:03;5.70;;;2.90;;
32445;SDS011;18899;50.748;7.102;2023-05-07T05:43:29;5.65;;;2.78;;
32445;SDS011;18899;50.748;7.102;2023-05-07T05:45:55;4.63;;;3.17;;
32445;SDS011;18899;50.748;7.102;2023-05-07T05:48:21;6.90;;;2.60;;
32445;SDS011;18899;50.748;7.102;2023-05-07T05:50:47;4.70;;;2.80;;
32445;SDS011;18899;50.748;7.102;2023-05-07T05:53:13;5.18;;;2.60;;
32445;SDS011;18899;50.748;7.102;2023-05-07T05:55:38;4.15;;;2.60;;
32445;SDS011;18899;50.748;7.102;2023-05-07T05:58:04;6.50;;;3.03;;
32445;SDS011;18899;50.748;7.102;2023-05-07T06:00:30;5.40;;;2.58;;
32445;SDS011;18899;50.748;7.102;2023-05-07T06:02:55;4.55;;;2.30;;
32445;SDS011;18899;50.748;7.102;2023-05-07T06:05:21;8.05;;;3.00;;
32445;SDS011;18899;50.748;7.102;2023-05-07T06:07:46;6.15;;;2.50;;
32445;SDS011;18899;50.748;7.102;2023-05-07T06:10:12;6.25;;;2.70;;
32445;SDS011;18899;50.748;7.102;2023-05-07T06:12:38;3.45;;;1.75;;
32445;SDS011;18899;50.748;7.102;2023-05-07T06:15:03;2.63;;;1.85;;
32445;SDS011;18899;50.748;7.102;2023-05-07T06:17:29;2.33;;;1.48;;
32445;SDS011;18899;50.748;7.102;2023-05-07T06:19:55;2.58;;;1.67;;
32445;SDS011;18899;50.748;7.102;2023-05-07T06:22:21;2.35;;;1.85;;
32445;SDS011;18899;50.748;7.102;2023-05-07T06:24:46;2.58;;;1.52;;
32445;SDS011;18899;50.748;7.102;2023-05-07T06:27:12;2.58;;;1.55;;
32445;SDS011;18899;50.748;7.102;2023-05-07T06:29:37;4.30;;;1.67;;
32445;SDS011;18899;50.748;7.102;2023-05-07T06:32:21;4.90;;;1.50;;
32445;SDS011;18899;50.748;7.102;2023-05-07T06:34:47;2.85;;;1.60;;
32445;SDS011;18899;50.748;7.102;2023-05-07T06:37:12;3.78;;;1.70;;
32445;SDS011;18899;50.748;7.102;2023-05-07T06:39:38;3.25;;;1.52;;
32445;SDS011;18899;50.748;7.102;2023-05-07T06:42:03;4.15;;;1.52;;
32445;SDS011;18899;50.748;7.102;2023-05-07T06:44:29;3.22;;;1.70;;
32445;SDS011;18899;50.748;7.102;2023-05-07T06:46:55;2.85;;;1.58;;
32445;SDS011;18899;50.748;7.102;2023-05-07T06:49:21;2.67;;;1.58;;
32445;SDS011;18899;50.748;7.102;2023-05-07T06:51:47;2.75;;;1.52;;
32445;SDS011;18899;50.748;7.102;2023-05-07T06:54:12;13.55;;;6.85;;
32445;SDS011;18899;50.748;7.102;2023-05-07T06:56:38;2.90;;;1.92;;
32445;SDS011;18899;50.748;7.102;2023-05-07T06:59:03;4.53;;;1.90;;
32445;SDS011;18899;50.748;7.102;2023-05-07T07:01:29;3.40;;;2.00;;
32445;SDS011;18899;50.748;7.102;2023-05-07T07:03:55;2.75;;;1.77;;
32445;SDS011;18899;50.748;7.102;2023-05-07T07:06:20;3.30;;;1.73;;
32445;SDS011;18899;50.748;7.102;2023-05-07T07:08:46;5.53;;;1.63;;
32445;SDS011;18899;50.748;7.102;2023-05-07T07:11:11;2.80;;;1.80;;
32445;SDS011;18899;50.748;7.102;2023-05-07T07:13:37;3.42;;;1.60;;
32445;SDS011;18899;50.748;7.102;2023-05-07T07:16:03;4.28;;;2.00;;
32445;SDS011;18899;50.748;7.102;2023-05-07T07:18:28;6.10;;;2.00;;
32445;SDS011;18899;50.748;7.102;2023-05-07T07:20:54;4.70;;;1.58;;
32445;SDS011;18899;50.748;7.102;2023-05-07T07:23:19;3.58;;;1.83;;
32445;SDS011;18899;50.748;7.102;2023-05-07T07:25:45;3.38;;;1.48;;
32445;SDS011;18899;50.748;7.102;2023-05-07T07:28:11;3.50;;;1.42;;
32445;SDS011;18899;50.748;7.102;2023-05-07T07:30:37;2.88;;;1.27;;
32445;SDS011;18899;50.748;7.102;2023-05-07T07:33:02;4.70;;;1.15;;
32445;SDS011;18899;50.748;7.102;2023-05-07T07:35:29;2.42;;;1.10;;
32445;SDS011;18899;50.748;7.102;2023-05-07T07:37:55;3.65;;;1.50;;
32445;SDS011;18899;50.748;7.102;2023-05-07T07:40:20;3.30;;;1.60;;
32445;SDS011;18899;50.748;7.102;2023-05-07T07:42:46;3.08;;;1.70;;
32445;SDS011;18899;50.748;7.102;2023-05-07T07:45:11;3.70;;;1.70;;
32445;SDS011;18899;50.748;7.102;2023-05-07T07:47:37;5.30;;;1.50;;
32445;SDS011;18899;50.748;7.102;2023-05-07T07:50:04;5.30;;;1.70;;
32445;SDS011;18899;50.748;7.102;2023-05-07T07:52:30;3.53;;;1.40;;
32445;SDS011;18899;50.748;7.102;2023-05-07T07:54:56;5.90;;;1.60;;
32445;SDS011;18899;50.748;7.102;2023-05-07T07:57:21;2.65;;;1.45;;
32445;SDS011;18899;50.748;7.102;2023-05-07T07:59:47;5.38;;;1.50;;
32445;SDS011;18899;50.748;7.102;2023-05-07T08:02:12;2.42;;;1.50;;
32445;SDS011;18899;50.748;7.102;2023-05-07T08:04:38;3.53;;;1.63;;
32445;SDS011;18899;50.748;7.102;2023-05-07T08:07:03;2.75;;;1.33;;
32445;SDS011;18899;50.748;7.102;2023-05-07T08:09:29;5.63;;;1.50;;
32445;SDS011;18899;50.748;7.102;2023-05-07T08:11:55;4.32;;;1.27;;
32445;SDS011;18899;50.748;7.102;2023-05-07T08:14:20;2.10;;;1.40;;
32445;SDS011;18899;50.748;7.102;2023-05-07T08:16:46;2.88;;;1.50;;
32445;SDS011;18899;50.748;7.102;2023-05-07T08:19:11;2.75;;;1.45;;
32445;SDS011;18899;50.748;7.102;2023-05-07T08:21:40;2.47;;;1.55;;
32445;SDS011;18899;50.748;7.102;2023-05-07T08:24:05;2.33;;;1.42;;
32445;SDS011;18899;50.748;7.102;2023-05-07T08:26:31;2.00;;;1.33;;
32445;SDS011;18899;50.748;7.102;2023-05-07T08:28:57;3.92;;;1.20;;
32445;SDS011;18899;50.748;7.102;2023-05-07T08:31:22;6.38;;;1.45;;
32445;SDS011;18899;50.748;7.102;2023-05-07T08:33:48;3.13;;;1.20;;
32445;SDS011;18899;50.748;7.102;2023-05-07T08:36:13;2.42;;;1.02;;
32445;SDS011;18899;50.748;7.102;2023-05-07T08:38:39;3.05;;;1.17;;
32445;SDS011;18899;50.748;7.102;2023-05-07T08:41:10;4.32;;;1.35;;
32445;SDS011;18899;50.748;7.102;2023-05-07T08:43:36;3.22;;;1.40;;
32445;SDS011;18899;50.748;7.102;2023-05-07T08:46:05;8.82;;;1.33;;
32445;SDS011;18899;50.748;7.102;2023-05-07T08:48:33;2.15;;;1.20;;
32445;SDS011;18899;50.748;7.102;2023-05-07T08:51:00;2.22;;;1.05;;
32445;SDS011;18899;50.748;7.102;2023-05-07T08:53:25;2.60;;;1.30;;
32445;SDS011;18899;50.748;7.102;2023-05-07T08:55:51;4.35;;;1.20;;
32445;SDS011;18899;50.748;7.102;2023-05-07T08:58:18;3.97;;;1.27;;
32445;SDS011;18899;50.748;7.102;2023-05-07T09:00:43;2.05;;;1.10;;
32445;SDS011;18899;50.748;7.102;2023-05-07T09:03:09;4.13;;;1.52;;
32445;SDS011;18899;50.748;7.102;2023-05-07T09:05:37;4.40;;;1.60;;
32445;SDS011;18899;50.748;7.102;2023-05-07T09:08:04;2.22;;;1.30;;
32445;SDS011;18899;50.748;7.102;2023-05-07T09:10:34;3.08;;;0.98;;
32445;SDS011;18899;50.748;7.102;2023-05-07T09:12:59;4.50;;;1.20;;
32445;SDS011;18899;50.748;7.102;2023-05-07T09:15:26;2.38;;;1.17;;
32445;SDS011;18899;50.748;7.102;2023-05-07T09:17:53;2.15;;;1.60;;
32445;SDS011;18899;50.748;7.102;2023-05-07T09:20:18;2.30;;;1.00;;
32445;SDS011;18899;50.748;7.102;2023-05-07T09:22:44;3.50;;;1.30;;
32445;SDS011;18899;50.748;7.102;2023-05-07T09:25:10;3.05;;;1.10;;
32445;SDS011;18899;50.748;7.102;2023-05-07T09:27:36;2.40;;;1.38;;
32445;SDS011;18899;50.748;7.102;2023-05-07T09:30:05;3.47;;;1.05;;
32445;SDS011;18899;50.748;7.102;2023-05-07T09:32:34;3.15;;;1.23;;
32445;SDS011;18899;50.748;7.102;2023-05-07T09:35:03;1.17;;;0.85;;
32445;SDS011;18899;50.748;7.102;2023-05-07T09:37:30;2.22;;;1.08;;
32445;SDS011;18899;50.748;7.102;2023-05-07T09:39:56;2.28;;;1.23;;
32445;SDS011;18899;50.748;7.102;2023-05-07T09:42:25;4.65;;;1.35;;
32445;SDS011;18899;50.748;7.102;2023-05-07T09:44:52;4.47;;;1.33;;
32445;SDS011;18899;50.748;7.102;2023-05-07T09:47:20;1.77;;;1.10;;
32445;SDS011;18899;50.748;7.102;2023-05-07T09:49:49;3.30;;;1.25;;
32445;SDS011;18899;50.748;7.102;2023-05-07T09:52:15;4.30;;;1.35;;
32445;SDS011;18899;50.748;7.102;2023-05-07T09:54:41;2.90;;;1.05;;
32445;SDS011;18899;50.748;7.102;2023-05-07T09:57:10;3.58;;;1.50;;
32445;SDS011;18899;50.748;7.102;2023-05-07T09:59:37;4.03;;;1.42;;
32445;SDS011;18899;50.748;7.102;2023-05-07T10:02:03;1.90;;;1.10;;
32445;SDS011;18899;50.748;7.102;2023-05-07T10:04:30;7.00;;;1.20;;
32445;SDS011;18899;50.748;7.102;2023-05-07T10:06:57;5.32;;;1.10;;
32445;SDS011;18899;50.748;7.102;2023-05-07T10:09:23;2.38;;;1.05;;
32445;SDS011;18899;50.748;7.102;2023-05-07T10:11:51;2.78;;;1.02;;
32445;SDS011;18899;50.748;7.102;2023-05-07T10:14:17;3.17;;;1.17;;
32445;SDS011;18899;50.748;7.102;2023-05-07T10:16:45;2.58;;;1.25;;
32445;SDS011;18899;50.748;7.102;2023-05-07T10:19:13;2.90;;;1.10;;
32445;SDS011;18899;50.748;7.102;2023-05-07T10:21:41;4.43;;;1.50;;
32445;SDS011;18899;50.748;7.102;2023-05-07T10:24:16;3.60;;;0.98;;
32445;SDS011;18899;50.748;7.102;2023-05-07T10:26:47;1.95;;;1.10;;
32445;SDS011;18899;50.748;7.102;2023-05-07T10:34:50;2.90;;;1.30;;
32445;SDS011;18899;50.748;7.102;2023-05-07T10:37:20;3.78;;;1.55;;
32445;SDS011;18899;50.748;7.102;2023-05-07T10:39:46;2.15;;;1.00;;
32445;SDS011;18899;50.748;7.102;2023-05-07T10:42:12;2.20;;;1.00;;
32445;SDS011;18899;50.748;7.102;2023-05-07T10:44:39;2.42;;;1.10;;
32445;SDS011;18899;50.748;7.102;2023-05-07T10:47:15;3.85;;;1.02;;
32445;SDS011;18899;50.748;7.102;2023-05-07T10:52:22;3.03;;;1.15;;
32445;SDS011;18899;50.748;7.102;2023-05-07T10:55:33;2.08;;;1.27;;
32445;SDS011;18899;50.748;7.102;2023-05-07T10:57:39;1.40;;;1.02;;
32445;SDS011;18899;50.748;7.102;2023-05-07T11:05:29;1.85;;;0.98;;
32445;SDS011;18899;50.748;7.102;2023-05-07T11:07:56;1.20;;;0.82;;
32445;SDS011;18899;50.748;7.102;2023-05-07T11:10:23;2.65;;;1.02;;
32445;SDS011;18899;50.748;7.102;2023-05-07T11:13:12;4.15;;;1.20;;
32445;SDS011;18899;50.748;7.102;2023-05-07T11:15:39;2.78;;;1.10;;
32445;SDS011;18899;50.748;7.102;2023-05-07T11:18:08;3.25;;;1.08;;
32445;SDS011;18899;50.748;7.102;2023-05-07T11:20:44;3.83;;;1.30;;
32445;SDS011;18899;50.748;7.102;2023-05-07T11:26:04;2.95;;;1.13;;
32445;SDS011;18899;50.748;7.102;2023-05-07T11:28:39;4.82;;;1.38;;
32445;SDS011;18899;50.748;7.102;2023-05-07T11:31:06;2.55;;;1.02;;
32445;SDS011;18899;50.748;7.102;2023-05-07T11:33:32;2.38;;;1.10;;
32445;SDS011;18899;50.748;7.102;2023-05-07T11:35:59;2.65;;;0.90;;
32445;SDS011;18899;50.748;7.102;2023-05-07T11:38:25;4.10;;;1.17;;
32445;SDS011;18899;50.748;7.102;2023-05-07T11:40:57;2.70;;;0.90;;
32445;SDS011;18899;50.748;7.102;2023-05-07T11:43:25;2.75;;;0.90;;
32445;SDS011;18899;50.748;7.102;2023-05-07T11:45:51;4.38;;;1.23;;
32445;SDS011;18899;50.748;7.102;2023-05-07T11:48:17;1.60;;;0.80;;
32445;SDS011;18899;50.748;7.102;2023-05-07T11:50:52;2.72;;;1.17;;
32445;SDS011;18899;50.748;7.102;2023-05-07T11:53:24;1.30;;;0.75;;
32445;SDS011;18899;50.748;7.102;2023-05-07T11:55:57;2.78;;;1.00;;
32445;SDS011;18899;50.748;7.102;2023-05-07T11:58:23;3.10;;;0.90;;
32445;SDS011;18899;50.748;7.102;2023-05-07T12:00:50;3.40;;;1.00;;
32445;SDS011;18899;50.748;7.102;2023-05-07T12:03:17;2.88;;;1.23;;
32445;SDS011;18899;50.748;7.102;2023-05-07T12:05:46;2.65;;;1.35;;
32445;SDS011;18899;50.748;7.102;2023-05-07T12:08:15;1.55;;;0.90;;
32445;SDS011;18899;50.748;7.102;2023-05-07T12:10:42;3.20;;;0.98;;
32445;SDS011;18899;50.748;7.102;2023-05-07T12:13:17;1.83;;;0.95;;
32445;SDS011;18899;50.748;7.102;2023-05-07T12:15:43;3.97;;;1.23;;
32445;SDS011;18899;50.748;7.102;2023-05-07T12:18:12;3.72;;;1.10;;
32445;SDS011;18899;50.748;7.102;2023-05-07T12:20:38;5.50;;;1.15;;
32445;SDS011;18899;50.748;7.102;2023-05-07T12:23:04;2.20;;;1.13;;
32445;SDS011;18899;50.748;7.102;2023-05-07T12:25:40;4.57;;;1.00;;
32445;SDS011;18899;50.748;7.102;2023-05-07T12:28:16;1.98;;;1.20;;
32445;SDS011;18899;50.748;7.102;2023-05-07T12:30:43;1.95;;;1.00;;
32445;SDS011;18899;50.748;7.102;2023-05-07T12:33:10;3.25;;;1.50;;
32445;SDS011;18899;50.748;7.102;2023-05-07T12:35:37;2.17;;;1.10;;
32445;SDS011;18899;50.748;7.102;2023-05-07T12:38:07;1.80;;;0.85;;
32445;SDS011;18899;50.748;7.102;2023-05-07T12:40:40;1.33;;;0.90;;
32445;SDS011;18899;50.748;7.102;2023-05-07T12:43:07;1.90;;;1.10;;
32445;SDS011;18899;50.748;7.102;2023-05-07T12:45:40;2.90;;;1.23;;
32445;SDS011;18899;50.748;7.102;2023-05-07T12:48:06;2.95;;;1.20;;
32445;SDS011;18899;50.748;7.102;2023-05-07T12:50:35;2.75;;;1.20;;
32445;SDS011;18899;50.748;7.102;2023-05-07T12:53:00;5.45;;;1.50;;
32445;SDS011;18899;50.748;7.102;2023-05-07T12:55:30;5.68;;;1.50;;
32445;SDS011;18899;50.748;7.102;2023-05-07T12:57:56;2.35;;;1.30;;
32445;SDS011;18899;50.748;7.102;2023-05-07T13:00:33;5.97;;;1.27;;
32445;SDS011;18899;50.748;7.102;2023-05-07T13:02:59;3.33;;;1.25;;
32445;SDS011;18899;50.748;7.102;2023-05-07T13:05:25;5.25;;;1.80;;
32445;SDS011;18899;50.748;7.102;2023-05-07T13:07:53;4.40;;;2.20;;
32445;SDS011;18899;50.748;7.102;2023-05-07T13:10:20;5.47;;;2.00;;
32445;SDS011;18899;50.748;7.102;2023-05-07T13:12:46;4.43;;;1.70;;
32445;SDS011;18899;50.748;7.102;2023-05-07T13:15:12;2.35;;;1.40;;
32445;SDS011;18899;50.748;7.102;2023-05-07T13:17:37;3.40;;;1.40;;
32445;SDS011;18899;50.748;7.102;2023-05-07T13:20:03;4.80;;;1.85;;
32445;SDS011;18899;50.748;7.102;2023-05-07T13:22:28;6.85;;;1.70;;
32445;SDS011;18899;50.748;7.102;2023-05-07T13:24:54;4.72;;;1.77;;
32445;SDS011;18899;50.748;7.102;2023-05-07T13:27:20;4.85;;;1.67;;
32445;SDS011;18899;50.748;7.102;2023-05-07T13:29:45;1.92;;;1.30;;
32445;SDS011;18899;50.748;7.102;2023-05-07T13:32:11;2.58;;;1.48;;
32445;SDS011;18899;50.748;7.102;2023-05-07T13:34:36;3.90;;;1.27;;
32445;SDS011;18899;50.748;7.102;2023-05-07T13:37:02;5.07;;;1.50;;
32445;SDS011;18899;50.748;7.102;2023-05-07T13:39:27;3.78;;;1.30;;
32445;SDS011;18899;50.748;7.102;2023-05-07T13:41:53;2.78;;;1.40;;
32445;SDS011;18899;50.748;7.102;2023-05-07T13:44:18;3.25;;;1.80;;
32445;SDS011;18899;50.748;7.102;2023-05-07T13:46:44;4.80;;;1.80;;
32445;SDS011;18899;50.748;7.102;2023-05-07T13:49:10;5.03;;;1.95;;
32445;SDS011;18899;50.748;7.102;2023-05-07T13:51:36;2.15;;;1.33;;
32445;SDS011;18899;50.748;7.102;2023-05-07T13:54:01;2.75;;;1.52;;
32445;SDS011;18899;50.748;7.102;2023-05-07T13:56:27;3.38;;;1.80;;
32445;SDS011;18899;50.748;7.102;2023-05-07T13:58:55;3.88;;;1.40;;
32445;SDS011;18899;50.748;7.102;2023-05-07T14:01:21;2.50;;;1.42;;
32445;SDS011;18899;50.748;7.102;2023-05-07T14:03:46;5.05;;;1.52;;
32445;SDS011;18899;50.748;7.102;2023-05-07T14:06:12;6.30;;;1.92;;
32445;SDS011;18899;50.748;7.102;2023-05-07T14:08:38;2.95;;;1.58;;
32445;SDS011;18899;50.748;7.102;2023-05-07T14:11:04;4.82;;;1.67;;
32445;SDS011;18899;50.748;7.102;2023-05-07T14:13:30;6.32;;;1.70;;
32445;SDS011;18899;50.748;7.102;2023-05-07T14:15:56;5.97;;;1.38;;
32445;SDS011;18899;50.748;7.102;2023-05-07T14:18:22;3.67;;;1.55;;
32445;SDS011;18899;50.748;7.102;2023-05-07T14:20:48;2.90;;;1.52;;
32445;SDS011;18899;50.748;7.102;2023-05-07T14:23:13;1.77;;;1.40;;
32445;SDS011;18899;50.748;7.102;2023-05-07T14:25:40;4.47;;;1.45;;
32445;SDS011;18899;50.748;7.102;2023-05-07T14:28:06;2.95;;;1.38;;
32445;SDS011;18899;50.748;7.102;2023-05-07T14:30:31;3.55;;;1.60;;
32445;SDS011;18899;50.748;7.102;2023-05-07T14:32:57;4.65;;;2.05;;
32445;SDS011;18899;50.748;7.102;2023-05-07T14:35:22;5.07;;;1.98;;
32445;SDS011;18899;50.748;7.102;2023-05-07T14:37:48;3.30;;;2.17;;
32445;SDS011;18899;50.748;7.102;2023-05-07T14:40:13;3.20;;;1.52;;
32445;SDS011;18899;50.748;7.102;2023-05-07T14:42:39;2.55;;;1.40;;
32445;SDS011;18899;50.748;7.102;2023-05-07T14:45:05;2.45;;;1.40;;
32445;SDS011;18899;50.748;7.102;2023-05-07T14:47:31;3.58;;;1.80;;
32445;SDS011;18899;50.748;7.102;2023-05-07T14:49:57;2.03;;;1.35;;
32445;SDS011;18899;50.748;7.102;2023-05-07T14:52:23;7.60;;;1.73;;
32445;SDS011;18899;50.748;7.102;2023-05-07T14:54:49;7.15;;;1.88;;
32445;SDS011;18899;50.748;7.102;2023-05-07T14:57:14;3.80;;;1.75;;
32445;SDS011;18899;50.748;7.102;2023-05-07T14:59:44;6.38;;;1.40;;